Time,TemperatureF,DewpointF,PressureIn,WindDirection,WindDirectionDegrees,WindSpeedMPH,WindSpeedGustMPH,Humidity,HourlyPrecipIn,Conditions,Clouds,dailyrainin,SoftwareType,DateUTC
2013-03-25 00:07:00,31.5,25.4,29.61,West,270,2.2,-999.0,78,-99.99,,,0.00,Acu-Link.com,2013-03-25 04:07:00,
2013-03-25 00:22:00,31.5,25.4,29.61,West,270,2.7,-999.0,78,-99.99,,,0.00,Acu-Link.com,2013-03-25 04:22:00,
2013-03-25 00:38:00,31.1,25.4,29.60,ESE,112,2.2,-999.0,79,-99.99,,,0.00,Acu-Link.com,2013-03-25 04:38:00,
2013-03-25 00:53:00,31.1,25.7,29.60,East,90,2.7,-999.0,80,-99.99,,,0.00,Acu-Link.com,2013-03-25 04:53:00,
2013-03-25 01:08:00,31.5,26.4,29.59,SE,135,4.2,-999.0,81,-99.99,,,0.00,Acu-Link.com,2013-03-25 05:08:00,
2013-03-25 01:23:00,31.8,26.6,29.59,NNE,22,2.2,-999.0,81,-99.99,,,0.00,Acu-Link.com,2013-03-25 05:23:00,
2013-03-25 01:39:00,31.6,26.5,29.59,ENE,67,3.2,-999.0,81,-99.99,,,0.00,Acu-Link.com,2013-03-25 05:39:00,
2013-03-25 01:54:00,31.6,26.5,29.59,East,90,2.7,-999.0,81,-99.99,,,0.00,Acu-Link.com,2013-03-25 05:54:00,
2013-03-25 02:09:00,31.5,26.4,29.58,NNW,337,2.7,-999.0,81,-99.99,,,0.00,Acu-Link.com,2013-03-25 06:09:00,
2013-03-25 02:25:00,31.6,26.7,29.58,East,90,1.7,-999.0,82,-99.99,,,0.00,Acu-Link.com,2013-03-25 06:25:00,
2013-03-25 02:40:00,31.5,26.9,29.58,East,90,2.7,-999.0,83,-99.99,,,0.00,Acu-Link.com,2013-03-25 06:40:00,
2013-03-25 02:55:00,31.5,26.9,29.58,ENE,67,1.1,-999.0,83,-99.99,,,0.00,Acu-Link.com,2013-03-25 06:55:00,
2013-03-25 03:11:00,31.8,27.5,29.57,ESE,112,2.7,-999.0,84,-99.99,,,0.00,Acu-Link.com,2013-03-25 07:11:00,
2013-03-25 03:41:00,32.0,27.7,29.56,SE,135,3.7,-999.0,84,-99.99,,,0.00,Acu-Link.com,2013-03-25 07:41:00,
2013-03-25 04:12:00,32.0,27.7,29.56,ESE,112,4.7,-999.0,84,-99.99,,,0.00,Acu-Link.com,2013-03-25 08:12:00,
2013-03-25 04:27:00,32.0,27.7,29.56,NNE,22,2.2,-999.0,84,-99.99,,,0.00,Acu-Link.com,2013-03-25 08:27:00,
2013-03-25 04:42:00,32.0,27.7,29.55,NE,45,2.7,-999.0,84,-99.99,,,0.00,Acu-Link.com,2013-03-25 08:42:00,
2013-03-25 04:57:00,31.8,27.8,29.55,ENE,67,3.7,-999.0,85,-99.99,,,0.00,Acu-Link.com,2013-03-25 08:57:00,
2013-03-25 05:12:00,31.6,27.6,29.55,SSE,157,0.0,-999.0,85,-99.99,,,0.00,Acu-Link.com,2013-03-25 09:12:00,
2013-03-25 05:43:00,31.5,27.8,29.57,South,180,1.1,-999.0,86,-99.99,,,0.00,Acu-Link.com,2013-03-25 09:43:00,
2013-03-25 05:58:00,31.5,28.1,29.55,ESE,112,1.7,-999.0,87,-99.99,,,0.00,Acu-Link.com,2013-03-25 09:58:00,
2013-03-25 06:13:00,31.3,27.9,29.56,NNW,337,2.7,-999.0,87,-99.99,,,0.00,Acu-Link.com,2013-03-25 10:13:00,
2013-03-25 06:28:00,31.5,28.1,29.55,ENE,67,2.2,-999.0,87,-99.99,,,0.00,Acu-Link.com,2013-03-25 10:28:00,
2013-03-25 06:44:00,31.5,28.4,29.54,NW,315,3.2,-999.0,88,-99.99,,,0.00,Acu-Link.com,2013-03-25 10:44:00,
2013-03-25 06:59:00,31.5,28.4,29.54,ESE,112,1.7,-999.0,88,-99.99,,,0.00,Acu-Link.com,2013-03-25 10:59:00,
2013-03-25 07:14:00,31.5,28.4,29.54,East,90,0.0,-999.0,88,-99.99,,,0.00,Acu-Link.com,2013-03-25 11:14:00,
2013-03-25 07:30:00,31.5,27.8,29.54,East,90,2.2,-999.0,86,-99.99,,,0.00,Acu-Link.com,2013-03-25 11:30:00,
2013-03-25 07:45:00,31.6,27.6,29.54,East,90,4.2,-999.0,85,-99.99,,,0.00,Acu-Link.com,2013-03-25 11:45:00,
2013-03-25 08:00:00,32.0,27.4,29.53,WSW,247,1.7,-999.0,83,-99.99,,,0.00,Acu-Link.com,2013-03-25 12:00:00,
2013-03-25 08:15:00,32.7,27.5,29.54,East,90,3.2,-999.0,81,-99.99,,,0.00,Acu-Link.com,2013-03-25 12:15:00,
2013-03-25 08:31:00,33.4,27.3,29.53,East,90,4.2,-999.0,78,-99.99,,,0.00,Acu-Link.com,2013-03-25 12:31:00,
2013-03-25 09:17:00,36.3,28.2,29.53,NW,315,2.2,-999.0,72,-99.99,,,0.00,Acu-Link.com,2013-03-25 13:17:00,
2013-03-25 09:32:00,36.7,28.5,29.53,East,90,2.7,-999.0,72,-99.99,,,0.00,Acu-Link.com,2013-03-25 13:32:00,
2013-03-25 09:47:00,37.0,28.5,29.52,NNW,337,2.7,-999.0,71,-99.99,,,0.00,Acu-Link.com,2013-03-25 13:47:00,
2013-03-25 10:17:00,38.8,29.2,29.52,SSW,202,3.7,-999.0,68,-99.99,,,0.00,Acu-Link.com,2013-03-25 14:17:00,
2013-03-25 10:33:00,39.4,30.1,29.52,ENE,67,4.2,-999.0,69,-99.99,,,0.00,Acu-Link.com,2013-03-25 14:33:00,
2013-03-25 10:48:00,39.6,29.9,29.52,ENE,67,3.7,-999.0,68,-99.99,,,0.00,Acu-Link.com,2013-03-25 14:48:00,
2013-03-25 11:03:00,42.3,31.8,29.52,NNE,22,2.7,-999.0,66,-99.99,,,0.00,Acu-Link.com,2013-03-25 15:03:00,
2013-03-25 11:19:00,43.2,31.5,29.51,ESE,112,4.7,-999.0,63,-99.99,,,0.00,Acu-Link.com,2013-03-25 15:19:00,
2013-03-25 11:34:00,43.7,31.5,29.51,ESE,112,1.7,-999.0,62,-99.99,,,0.00,Acu-Link.com,2013-03-25 15:34:00,
2013-03-25 11:49:00,44.4,32.2,29.50,East,90,5.8,-999.0,62,-99.99,,,0.00,Acu-Link.com,2013-03-25 15:49:00,
2013-03-25 12:04:00,45.1,32.5,29.50,East,90,3.7,-999.0,61,-99.99,,,0.00,Acu-Link.com,2013-03-25 16:04:00,
2013-03-25 12:20:00,43.5,31.8,29.51,East,90,4.7,-999.0,63,-99.99,,,0.00,Acu-Link.com,2013-03-25 16:20:00,
2013-03-25 12:35:00,44.2,32.0,29.49,NE,45,2.7,-999.0,62,-99.99,,,0.00,Acu-Link.com,2013-03-25 16:35:00,
2013-03-25 12:50:00,42.6,30.9,29.50,North,0,2.7,-999.0,63,-99.99,,,0.00,Acu-Link.com,2013-03-25 16:50:00,
2013-03-25 13:06:00,42.8,31.1,29.50,ENE,67,2.7,-999.0,63,-99.99,,,0.00,Acu-Link.com,2013-03-25 17:06:00,
2013-03-25 13:21:00,43.7,31.9,29.50,ESE,112,2.7,-999.0,63,-99.99,,,0.00,Acu-Link.com,2013-03-25 17:21:00,
2013-03-25 13:36:00,43.3,32.3,29.50,ENE,67,2.7,-999.0,65,-99.99,,,0.00,Acu-Link.com,2013-03-25 17:36:00,
2013-03-25 13:51:00,42.8,31.9,29.50,West,270,2.7,-999.0,65,-99.99,,,0.00,Acu-Link.com,2013-03-25 17:51:00,
2013-03-25 14:07:00,42.6,33.5,29.50,ESE,112,2.7,-999.0,70,-99.99,,,0.00,Acu-Link.com,2013-03-25 18:07:00,
2013-03-25 14:22:00,41.5,31.7,29.50,NE,45,3.2,-999.0,68,-99.99,,,0.00,Acu-Link.com,2013-03-25 18:22:00,
2013-03-25 14:52:00,40.8,32.8,29.51,West,270,3.2,-999.0,73,-99.99,,,0.00,Acu-Link.com,2013-03-25 18:52:00,
2013-03-25 15:07:00,41.0,33.7,29.50,NNW,337,3.2,-999.0,75,-99.99,,,0.00,Acu-Link.com,2013-03-25 19:07:00,
2013-03-25 15:23:00,40.6,33.3,29.52,WSW,247,3.7,-999.0,75,-99.99,,,0.00,Acu-Link.com,2013-03-25 19:23:00,
2013-03-25 15:38:00,40.3,33.0,29.51,ESE,112,3.2,-999.0,75,-99.99,,,0.00,Acu-Link.com,2013-03-25 19:38:00,
2013-03-25 15:53:00,40.8,32.1,29.52,NNE,22,4.2,-999.0,71,-99.99,,,0.00,Acu-Link.com,2013-03-25 19:53:00,
2013-03-25 16:08:00,40.6,31.2,29.53,SSW,202,2.7,-999.0,69,-99.99,,,0.00,Acu-Link.com,2013-03-25 20:08:00,
2013-03-25 16:24:00,41.0,30.9,29.52,NNE,22,3.7,-999.0,67,-99.99,,,0.00,Acu-Link.com,2013-03-25 20:24:00,
2013-03-25 16:39:00,40.8,30.0,29.53,WNW,292,2.7,-999.0,65,-99.99,,,0.00,Acu-Link.com,2013-03-25 20:39:00,
2013-03-25 16:54:00,41.2,30.0,29.54,East,90,2.7,-999.0,64,-99.99,,,0.00,Acu-Link.com,2013-03-25 20:54:00,
2013-03-25 17:10:00,41.2,29.6,29.54,ESE,112,2.2,-999.0,63,-99.99,,,0.00,Acu-Link.com,2013-03-25 21:10:00,
2013-03-25 17:25:00,41.2,29.6,29.54,West,270,3.2,-999.0,63,-99.99,,,0.00,Acu-Link.com,2013-03-25 21:25:00,
2013-03-25 17:40:00,41.7,29.7,29.55,SSW,202,3.7,-999.0,62,-99.99,,,0.00,Acu-Link.com,2013-03-25 21:40:00,
2013-03-25 17:56:00,41.4,29.8,29.55,ESE,112,4.7,-999.0,63,-99.99,,,0.00,Acu-Link.com,2013-03-25 21:56:00,
2013-03-25 18:11:00,40.6,29.4,29.57,ENE,67,7.3,-999.0,64,-99.99,,,0.00,Acu-Link.com,2013-03-25 22:11:00,
2013-03-25 18:42:00,39.9,29.8,29.57,ESE,112,2.7,-999.0,67,-99.99,,,0.00,Acu-Link.com,2013-03-25 22:42:00,
2013-03-25 18:57:00,39.6,29.9,29.58,ENE,67,3.2,-999.0,68,-99.99,,,0.00,Acu-Link.com,2013-03-25 22:57:00,
2013-03-25 19:12:00,38.7,29.4,29.59,SSE,157,1.7,-999.0,69,-99.99,,,0.00,Acu-Link.com,2013-03-25 23:12:00,
2013-03-25 19:27:00,37.9,29.0,29.60,SSW,202,4.2,-999.0,70,-99.99,,,0.00,Acu-Link.com,2013-03-25 23:27:00,
2013-03-25 19:42:00,37.0,28.5,29.61,NNE,22,3.2,-999.0,71,-99.99,,,0.00,Acu-Link.com,2013-03-25 23:42:00,
2013-03-25 19:57:00,36.5,28.7,29.61,West,270,0.0,-999.0,73,-99.99,,,0.00,Acu-Link.com,2013-03-25 23:57:00,
2013-03-25 20:13:00,36.0,28.2,29.62,NE,45,1.7,-999.0,73,-99.99,,,0.00,Acu-Link.com,2013-03-26 00:13:00,
2013-03-25 20:28:00,35.4,28.3,29.63,West,270,0.0,-999.0,75,-99.99,,,0.00,Acu-Link.com,2013-03-26 00:28:00,
2013-03-25 20:43:00,34.7,27.9,29.63,South,180,0.0,-999.0,76,-99.99,,,0.00,Acu-Link.com,2013-03-26 00:43:00,
2013-03-25 20:58:00,34.0,27.6,29.63,WNW,292,0.0,-999.0,77,-99.99,,,0.00,Acu-Link.com,2013-03-26 00:58:00,
2013-03-25 21:28:00,34.2,28.4,29.64,WNW,292,0.0,-999.0,79,-99.99,,,0.00,Acu-Link.com,2013-03-26 01:28:00,
2013-03-25 21:44:00,34.5,28.4,29.64,West,270,0.0,-999.0,78,-99.99,,,0.00,Acu-Link.com,2013-03-26 01:44:00,
2013-03-25 21:59:00,34.5,28.4,29.64,West,270,0.0,-999.0,78,-99.99,,,0.00,Acu-Link.com,2013-03-26 01:59:00,
2013-03-25 22:15:00,34.2,28.1,29.65,WNW,292,0.0,-999.0,78,-99.99,,,0.00,Acu-Link.com,2013-03-26 02:15:00,
2013-03-25 22:30:00,33.6,27.8,29.65,WNW,292,0.0,-999.0,79,-99.99,,,0.00,Acu-Link.com,2013-03-26 02:30:00,
2013-03-25 22:45:00,33.1,27.6,29.65,WNW,292,0.0,-999.0,80,-99.99,,,0.00,Acu-Link.com,2013-03-26 02:45:00,
2013-03-25 23:01:00,33.1,27.9,29.65,West,270,0.0,-999.0,81,-99.99,,,0.00,Acu-Link.com,2013-03-26 03:01:00,
2013-03-25 23:16:00,33.1,28.5,29.66,West,270,0.0,-999.0,83,-99.99,,,0.00,Acu-Link.com,2013-03-26 03:16:00,
2013-03-25 23:31:00,33.3,28.7,29.65,West,270,0.0,-999.0,83,-99.99,,,0.00,Acu-Link.com,2013-03-26 03:31:00,
2013-03-25 23:47:00,33.3,28.7,29.65,West,270,0.0,-999.0,83,-99.99,,,0.00,Acu-Link.com,2013-03-26 03:47:00,